Time;durP1;ratioP1;P1;durP2;ratioP2;P2;SDS_P1;SDS_P2;PMS_P1;PMS_P2;Temp;Humidity;BMP_temperature;BMP_pressure;BME280_temperature;BME280_humidity;BME280_pressure;Samples;Min_cycle;Max_cycle;Signal;HPM_P1;HPM_P2
2022/03/11 00:03:28;;;;;;;13.73;6.47;;;;;;;;;;20912175;28;20476;-59
2022/03/11 00:13:30;;;;;;;11.80;6.50;;;;;;;;;;20911800;28;20045;-60
2022/03/11 00:23:33;;;;;;;18.15;7.18;;;;;;;;;;20911670;28;20057;-59
2022/03/11 00:33:36;;;;;;;17.25;7.60;;;;;;;;;;20911389;28;20048;-59
2022/03/11 00:43:38;;;;;;;25.73;13.18;;;;;;;;;;20912131;28;20408;-59
2022/03/11 00:53:40;;;;;;;15.70;7.82;;;;;;;;;;20911891;28;20476;-59
2022/03/11 01:03:42;;;;;;;16.25;7.03;;;;;;;;;;20910226;28;20049;-59
2022/03/11 01:13:44;;;;;;;16.63;7.50;;;;;;;;;;20917226;28;20103;-59
2022/03/11 01:23:46;;;;;;;16.30;8.05;;;;;;;;;;20925435;28;20060;-59
2022/03/11 01:33:48;;;;;;;15.20;7.72;;;;;;;;;;20924708;28;20055;-59
2022/03/11 01:43:55;;;;;;;14.98;7.10;;;;;;;;;;20923880;28;20053;-60
2022/03/11 01:53:57;;;;;;;13.20;7.13;;;;;;;;;;20924445;28;20199;-59
2022/03/11 02:03:59;;;;;;;13.75;7.70;;;;;;;;;;20923288;28;20058;-60
2022/03/11 02:14:01;;;;;;;12.95;6.78;;;;;;;;;;20921545;28;20486;-61
2022/03/11 02:24:05;;;;;;;13.65;6.22;;;;;;;;;;20920630;28;20163;-60
2022/03/11 02:34:07;;;;;;;10.23;5.75;;;;;;;;;;20919616;28;20140;-59
2022/03/11 02:44:09;;;;;;;7.03;5.28;;;;;;;;;;20919147;28;20060;-59
2022/03/11 02:54:11;;;;;;;10.05;4.65;;;;;;;;;;20918857;28;20051;-60
2022/03/11 03:04:13;;;;;;;6.82;4.95;;;;;;;;;;20917908;28;20447;-59
2022/03/11 03:14:15;;;;;;;9.10;4.55;;;;;;;;;;20917042;28;20079;-59
2022/03/11 03:24:36;;;;;;;8.35;4.70;;;;;;;;;;20915906;28;20111;-58
2022/03/11 03:34:58;;;;;;;7.03;4.15;;;;;;;;;;20915276;28;20068;-60
2022/03/11 03:45:19;;;;;;;7.55;4.30;;;;;;;;;;20914050;28;20049;-60
2022/03/11 03:55:41;;;;;;;7.90;4.25;;;;;;;;;;20913856;28;20056;-60
2022/03/11 04:06:03;;;;;;;8.73;4.60;;;;;;;;;;20913583;28;20075;-59
2022/03/11 04:16:23;;;;;;;9.30;5.70;;;;;;;;;;20913143;28;20052;-59
2022/03/11 04:26:45;;;;;;;11.77;6.13;;;;;;;;;;20911780;28;20052;-60
2022/03/11 04:37:07;;;;;;;14.18;6.68;;;;;;;;;;20913380;28;20398;-60
2022/03/11 04:47:29;;;;;;;11.10;5.20;;;;;;;;;;20918912;28;20053;-59
2022/03/11 04:57:51;;;;;;;8.18;4.40;;;;;;;;;;20928470;28;20045;-59
2022/03/11 05:08:12;;;;;;;9.48;5.15;;;;;;;;;;20926330;28;20412;-60
2022/03/11 05:18:34;;;;;;;9.48;5.28;;;;;;;;;;20926539;28;20045;-60
2022/03/11 05:28:58;;;;;;;10.30;5.43;;;;;;;;;;20924821;28;20045;-60
2022/03/11 05:39:19;;;;;;;9.85;5.70;;;;;;;;;;20923961;28;20056;-59
2022/03/11 05:49:33;;;;;;;7.70;5.30;;;;;;;;;;20923263;28;20135;-59
2022/03/11 05:59:45;;;;;;;12.30;5.00;;;;;;;;;;20921550;28;20049;-59
2022/03/11 06:09:58;;;;;;;5.68;3.40;;;;;;;;;;20922405;28;20493;-60
2022/03/11 06:20:05;;;;;;;10.73;4.70;;;;;;;;;;20921105;28;20053;-59
2022/03/11 06:30:14;;;;;;;5.32;3.15;;;;;;;;;;20920962;28;20048;-59
2022/03/11 06:40:17;;;;;;;;;;;;;;;;;;20919484;28;20062;-59
2022/03/11 06:50:22;;;;;;;5.03;2.95;;;;;;;;;;20917932;28;19921;-59
2022/03/11 07:00:26;;;;;;;5.40;3.40;;;;;;;;;;20916945;28;20076;-59
2022/03/11 07:10:28;;;;;;;5.68;3.55;;;;;;;;;;20915424;28;20110;-60
2022/03/11 07:20:34;;;;;;;;;;;;;;;;;;20916520;28;20052;-59
2022/03/11 07:30:38;;;;;;;9.77;6.07;;;;;;;;;;20914568;28;20408;-61
2022/03/11 07:40:44;;;;;;;8.85;6.15;;;;;;;;;;20913942;28;20090;-59
2022/03/11 07:50:47;;;;;;;13.55;5.90;;;;;;;;;;20913866;28;20456;-60
2022/03/11 08:00:53;;;;;;;11.00;7.47;;;;;;;;;;20912858;28;20056;-60
2022/03/11 08:10:57;;;;;;;8.93;6.40;;;;;;;;;;20912592;28;20139;-59
2022/03/11 08:21:03;;;;;;;11.50;8.00;;;;;;;;;;20911259;28;20416;-59
2022/03/11 08:31:07;;;;;;;9.43;7.03;;;;;;;;;;20911631;28;20064;-60
2022/03/11 08:41:30;;;;;;;10.27;7.72;;;;;;;;;;20910949;28;20056;-60
2022/03/11 08:51:51;;;;;;;9.70;7.25;;;;;;;;;;20912001;28;20045;-60
2022/03/11 09:02:15;;;;;;;10.05;6.93;;;;;;;;;;20909445;28;20107;-56
2022/03/11 09:12:37;;;;;;;11.32;6.75;;;;;;;;;;20864256;28;20052;-57
2022/03/11 09:22:53;;;;;;;10.95;6.75;;;;;;;;;;20876831;28;20056;-58
2022/03/11 09:33:15;;;;;;;20.80;12.38;;;;;;;;;;20912869;28;20060;-61
2022/03/11 09:43:24;;;;;;;9.48;7.03;;;;;;;;;;20924122;28;20048;-60
2022/03/11 09:53:29;;;;;;;9.20;6.60;;;;;;;;;;20923364;28;20372;-61
2022/03/11 10:03:37;;;;;;;11.20;6.47;;;;;;;;;;20921696;28;20412;-60
2022/03/11 10:13:45;;;;;;;9.60;6.70;;;;;;;;;;20920947;28;20060;-60
2022/03/11 10:23:53;;;;;;;11.02;7.63;;;;;;;;;;20909249;28;20061;-60
2022/03/11 10:34:21;;;;;;;9.05;7.45;;;;;;;;;;20856193;28;20049;-58
2022/03/11 10:45:00;;;;;;;9.82;6.93;;;;;;;;;;20836585;28;20493;-58
2022/03/11 10:55:18;;;;;;;9.80;6.97;;;;;;;;;;20835407;28;20065;-60
2022/03/11 11:05:23;;;;;;;17.70;12.50;;;;;;;;;;20854195;28;20132;-57
2022/03/11 11:15:27;;;;;;;17.73;11.57;;;;;;;;;;20845718;28;20518;-57
2022/03/11 11:25:38;;;;;;;7.18;5.05;;;;;;;;;;20845761;28;20516;-57
2022/03/11 11:35:45;;;;;;;8.82;5.93;;;;;;;;;;20894591;28;20486;-59
2022/03/11 11:45:50;;;;;;;3.40;2.10;;;;;;;;;;20904769;28;20060;-56
2022/03/11 11:55:54;;;;;;;3.17;1.92;;;;;;;;;;20877281;28;20049;-59
2022/03/11 12:05:57;;;;;;;4.30;2.53;;;;;;;;;;20902589;28;20048;-59
2022/03/11 12:16:00;;;;;;;2.40;1.10;;;;;;;;;;20912554;28;20088;-60
2022/03/11 12:26:11;;;;;;;4.28;1.70;;;;;;;;;;20911718;28;20057;-61
2022/03/11 12:36:16;;;;;;;2.50;1.17;;;;;;;;;;20911197;28;20052;-60
2022/03/11 12:46:20;;;;;;;4.13;2.10;;;;;;;;;;20910888;28;20053;-61
2022/03/11 12:56:23;;;;;;;5.07;3.47;;;;;;;;;;20911086;28;20535;-60
2022/03/11 13:06:26;;;;;;;4.43;2.03;;;;;;;;;;20911858;28;20412;-59
2022/03/11 13:16:29;;;;;;;3.88;1.80;;;;;;;;;;20925293;28;20568;-60
2022/03/11 13:26:32;;;;;;;4.47;1.70;;;;;;;;;;20923866;28;20059;-60
2022/03/11 13:36:37;;;;;;;7.10;1.92;;;;;;;;;;20922486;28;20049;-60
2022/03/11 13:46:40;;;;;;;;;;;;;;;;;;20922974;28;20053;-60
2022/03/11 13:56:43;;;;;;;2.28;1.10;;;;;;;;;;20921729;28;19975;-62
2022/03/11 14:06:46;;;;;;;4.40;1.30;;;;;;;;;;20921443;28;20049;-60
2022/03/11 14:16:54;;;;;;;5.68;1.85;;;;;;;;;;20921400;28;20481;-60
2022/03/11 14:26:57;;;;;;;3.80;1.40;;;;;;;;;;20919716;28;20056;-61
2022/03/11 14:37:00;;;;;;;3.22;1.55;;;;;;;;;;20918399;28;20128;-60
2022/03/11 14:47:04;;;;;;;5.63;1.70;;;;;;;;;;20917976;28;20045;-60
2022/03/11 14:57:06;;;;;;;6.28;1.27;;;;;;;;;;20919113;28;20044;-60
2022/03/11 15:07:10;;;;;;;1.42;1.10;;;;;;;;;;20917275;28;20131;-60
2022/03/11 15:17:12;;;;;;;2.60;1.15;;;;;;;;;;20916422;28;20090;-61
2022/03/11 15:27:15;;;;;;;2.10;0.95;;;;;;;;;;20915261;28;20417;-60
2022/03/11 15:37:18;;;;;;;2.33;0.80;;;;;;;;;;20913335;28;20045;-60
2022/03/11 15:47:23;;;;;;;3.13;1.10;;;;;;;;;;20914252;28;20075;-60
2022/03/11 15:57:26;;;;;;;3.65;1.20;;;;;;;;;;20914828;28;20527;-60
2022/03/11 16:07:29;;;;;;;3.40;1.17;;;;;;;;;;20913626;28;20131;-60
2022/03/11 16:17:32;;;;;;;5.90;1.30;;;;;;;;;;20911736;28;20126;-59
2022/03/11 16:27:34;;;;;;;2.47;1.02;;;;;;;;;;20911850;28;20110;-61
2022/03/11 16:37:38;;;;;;;3.22;1.23;;;;;;;;;;20910673;28;20056;-59
2022/03/11 16:47:44;;;;;;;4.60;1.75;;;;;;;;;;20924702;28;20060;-59
2022/03/11 16:57:46;;;;;;;4.50;2.78;;;;;;;;;;20927576;28;20052;-67
2022/03/11 17:07:50;;;;;;;4.20;1.52;;;;;;;;;;20926524;28;20061;-62
2022/03/11 17:17:52;;;;;;;3.28;1.17;;;;;;;;;;20923023;28;20056;-61
2022/03/11 17:27:55;;;;;;;3.85;1.70;;;;;;;;;;20924382;28;20081;-57
2022/03/11 17:38:00;;;;;;;5.25;1.95;;;;;;;;;;20922962;28;20059;-62
2022/03/11 17:48:04;;;;;;;7.97;3.30;;;;;;;;;;20922137;28;20048;-60
2022/03/11 17:58:11;;;;;;;5.45;1.95;;;;;;;;;;20921844;28;20059;-60
2022/03/11 18:08:14;;;;;;;5.55;1.85;;;;;;;;;;20921943;28;20145;-57
2022/03/11 18:18:18;;;;;;;4.30;1.58;;;;;;;;;;20921939;28;20128;-60
2022/03/11 18:28:21;;;;;;;7.27;1.93;;;;;;;;;;20919408;28;20049;-62
2022/03/11 18:38:24;;;;;;;3.63;1.40;;;;;;;;;;20921570;28;20320;-70
2022/03/11 18:48:26;;;;;;;5.20;1.90;;;;;;;;;;20922602;28;20056;-66
2022/03/11 18:58:29;;;;;;;6.65;2.05;;;;;;;;;;20921133;28;20522;-68
2022/03/11 19:08:31;;;;;;;6.20;1.63;;;;;;;;;;20916964;28;20382;-63
2022/03/11 19:18:33;;;;;;;4.03;1.50;;;;;;;;;;20915343;28;20448;-58
2022/03/11 19:28:37;;;;;;;6.95;2.05;;;;;;;;;;20915753;28;20052;-70
2022/03/11 19:38:44;;;;;;;4.37;2.03;;;;;;;;;;20915106;28;20052;-68
2022/03/11 19:48:46;;;;;;;4.75;1.80;;;;;;;;;;20913818;28;20045;-67
2022/03/11 19:58:48;;;;;;;5.18;1.73;;;;;;;;;;20913761;28;20048;-66
2022/03/11 20:08:50;;;;;;;7.03;3.10;;;;;;;;;;20915329;28;20053;-64
2022/03/11 20:18:52;;;;;;;8.63;2.45;;;;;;;;;;20913257;28;20057;-62
2022/03/11 20:28:56;;;;;;;9.35;2.92;;;;;;;;;;20918466;28;20527;-69
2022/03/11 20:38:58;;;;;;;5.40;1.80;;;;;;;;;;20916379;28;20083;-65
2022/03/11 20:49:01;;;;;;;7.85;3.15;;;11.50;71.80;;;;;;20913522;28;20057;-64
2022/03/11 20:59:03;;;;;;;6.22;1.90;;;11.30;72.20;;;;;;20912514;28;20099;-60
2022/03/11 21:09:05;;;;;;;8.07;2.10;;;10.90;74.10;;;;;;20912542;28;20059;-68
2022/03/11 21:19:12;;;;;;;4.13;1.83;;;11.00;73.10;;;;;;20911898;28;20056;-68
2022/03/11 21:29:16;;;;;;;1.98;1.25;;;11.10;72.10;;;;;;20914202;28;20049;-59
2022/03/11 21:39:18;;;;;;;5.68;2.00;;;11.10;71.30;;;;;;20924952;28;20528;-66
2022/03/11 21:49:22;;;;;;;4.18;1.63;;;11.00;70.70;;;;;;20923281;28;20480;-58
2022/03/11 21:59:26;;;;;;;3.58;1.70;;;10.80;70.10;;;;;;20924275;28;20496;-64
2022/03/11 22:09:29;;;;;;;5.60;1.80;;;10.90;70.50;;;;;;20922397;28;20394;-64
2022/03/11 22:19:32;;;;;;;7.25;2.78;;;10.10;72.90;;;;;;20921245;28;20053;-59
2022/03/11 22:29:34;;;;;;;5.47;1.73;;;10.40;73.30;;;;;;20920642;28;20057;-67
2022/03/11 22:39:37;;;;;;;3.97;1.50;;;10.30;72.80;;;;;;20919044;28;20053;-68
2022/03/11 22:49:40;;;;;;;5.07;1.90;;;10.20;72.30;;;;;;20919318;28;20049;-60
2022/03/11 22:59:49;;;;;;;3.90;1.13;;;9.90;74.20;;;;;;20918489;28;20044;-63
2022/03/11 23:09:52;;;;;;;5.22;1.73;;;9.70;74.70;;;;;;20917369;28;20132;-62
2022/03/11 23:19:55;;;;;;;3.70;1.67;;;10.00;73.60;;;;;;20917840;28;20057;-60
2022/03/11 23:29:58;;;;;;;4.38;2.10;;;10.10;72.60;;;;;;20916164;28;20106;-60
2022/03/11 23:40:10;;;;;;;2.65;1.40;;;9.90;73.20;;;;;;20914977;28;20045;-66
2022/03/11 23:50:14;;;;;;;4.20;1.30;;;10.10;72.50;;;;;;20913478;28;20057;-66
